Ariton, Alabama
Current Conditions -  °F | °C
As of 2:53 PM on Sunday 23 Nov 2014 (Local Time) from KLOR Reporting Station
Light Rain Light Rain  
Wind Chill: 64°   Ceiling: 9000
Heat Index: 64°   Visibility: 5mi
Dew Point: 61°   Wind: 14mph
Humidity: 90%   Direction: 190°S
Pressure: 29.72"   Gusts: NA
Location:  31.6°N, 85.72°W
Report Text: KLOR 232053Z AUTO 19012KT 5SM -RA BR FEW075 BKN090 OVC110 18/16 A2972 RMK AO2 RAB1958 SLP060 P0010 60042 T01780161 53005 TSNO $
Loading
Personal Weather Stations






























Interactive Weather Map New forecast layout! Learn more

10-Day Weather Forecast

Advertisements
Track Severe Weather on mobile